sensor_id;sensor_type;location;lat;lon;timestamp;P1;durP1;ratioP1;P2;durP2;ratioP2
67869;SDS011;54673;52.262;6.830;2024-03-07T00:00:27;37.60;;;13.30;;
67869;SDS011;54673;52.262;6.830;2024-03-07T00:02:53;33.65;;;12.50;;
67869;SDS011;54673;52.262;6.830;2024-03-07T00:05:20;31.43;;;13.00;;
67869;SDS011;54673;52.262;6.830;2024-03-07T00:07:49;29.30;;;13.00;;
67869;SDS011;54673;52.262;6.830;2024-03-07T00:10:14;36.07;;;13.20;;
67869;SDS011;54673;52.262;6.830;2024-03-07T00:12:41;34.40;;;14.20;;
67869;SDS011;54673;52.262;6.830;2024-03-07T00:15:08;30.60;;;13.60;;
67869;SDS011;54673;52.262;6.830;2024-03-07T00:17:35;37.22;;;14.57;;
67869;SDS011;54673;52.262;6.830;2024-03-07T00:20:01;35.63;;;14.43;;
67869;SDS011;54673;52.262;6.830;2024-03-07T00:22:29;35.10;;;13.75;;
67869;SDS011;54673;52.262;6.830;2024-03-07T00:24:55;32.20;;;13.35;;
67869;SDS011;54673;52.262;6.830;2024-03-07T00:27:21;37.10;;;14.33;;
67869;SDS011;54673;52.262;6.830;2024-03-07T00:29:48;37.47;;;15.05;;
67869;SDS011;54673;52.262;6.830;2024-03-07T00:32:21;35.83;;;14.18;;
67869;SDS011;54673;52.262;6.830;2024-03-07T00:34:47;31.10;;;12.85;;
67869;SDS011;54673;52.262;6.830;2024-03-07T00:37:13;35.75;;;13.65;;
67869;SDS011;54673;52.262;6.830;2024-03-07T00:39:39;33.47;;;13.70;;
67869;SDS011;54673;52.262;6.830;2024-03-07T00:42:05;31.70;;;13.30;;
67869;SDS011;54673;52.262;6.830;2024-03-07T00:44:32;35.27;;;13.67;;
67869;SDS011;54673;52.262;6.830;2024-03-07T00:46:57;30.75;;;13.02;;
67869;SDS011;54673;52.262;6.830;2024-03-07T00:49:23;30.43;;;12.83;;
67869;SDS011;54673;52.262;6.830;2024-03-07T00:51:48;37.75;;;13.38;;
67869;SDS011;54673;52.262;6.830;2024-03-07T00:54:14;35.20;;;14.27;;
67869;SDS011;54673;52.262;6.830;2024-03-07T00:56:41;29.95;;;13.10;;
67869;SDS011;54673;52.262;6.830;2024-03-07T00:59:06;31.30;;;13.07;;
67869;SDS011;54673;52.262;6.830;2024-03-07T01:01:32;33.13;;;12.80;;
67869;SDS011;54673;52.262;6.830;2024-03-07T01:03:59;34.42;;;13.20;;
67869;SDS011;54673;52.262;6.830;2024-03-07T01:06:25;31.10;;;12.52;;
67869;SDS011;54673;52.262;6.830;2024-03-07T01:08:51;34.37;;;13.60;;
67869;SDS011;54673;52.262;6.830;2024-03-07T01:11:17;34.15;;;13.40;;
67869;SDS011;54673;52.262;6.830;2024-03-07T01:13:42;30.23;;;13.17;;
67869;SDS011;54673;52.262;6.830;2024-03-07T01:16:08;41.88;;;14.75;;
67869;SDS011;54673;52.262;6.830;2024-03-07T01:18:34;35.03;;;13.80;;
67869;SDS011;54673;52.262;6.830;2024-03-07T01:21:00;30.85;;;13.32;;
67869;SDS011;54673;52.262;6.830;2024-03-07T01:23:26;33.40;;;13.37;;
67869;SDS011;54673;52.262;6.830;2024-03-07T01:25:54;32.67;;;12.85;;
67869;SDS011;54673;52.262;6.830;2024-03-07T01:28:21;30.37;;;12.67;;
67869;SDS011;54673;52.262;6.830;2024-03-07T01:30:48;31.70;;;13.18;;
67869;SDS011;54673;52.262;6.830;2024-03-07T01:33:17;31.95;;;12.90;;
67869;SDS011;54673;52.262;6.830;2024-03-07T01:35:44;32.77;;;12.67;;
67869;SDS011;54673;52.262;6.830;2024-03-07T01:38:10;33.00;;;13.18;;
67869;SDS011;54673;52.262;6.830;2024-03-07T01:40:36;33.83;;;12.87;;
67869;SDS011;54673;52.262;6.830;2024-03-07T01:43:02;37.42;;;13.63;;
67869;SDS011;54673;52.262;6.830;2024-03-07T01:45:28;29.60;;;12.43;;
67869;SDS011;54673;52.262;6.830;2024-03-07T01:47:54;34.50;;;14.05;;
67869;SDS011;54673;52.262;6.830;2024-03-07T01:50:22;29.63;;;11.82;;
67869;SDS011;54673;52.262;6.830;2024-03-07T01:52:48;33.85;;;13.52;;
67869;SDS011;54673;52.262;6.830;2024-03-07T01:55:15;33.55;;;12.85;;
67869;SDS011;54673;52.262;6.830;2024-03-07T01:57:42;31.33;;;12.30;;
67869;SDS011;54673;52.262;6.830;2024-03-07T02:00:07;39.95;;;14.73;;
67869;SDS011;54673;52.262;6.830;2024-03-07T02:02:34;33.77;;;13.00;;
67869;SDS011;54673;52.262;6.830;2024-03-07T02:05:00;32.97;;;12.32;;
67869;SDS011;54673;52.262;6.830;2024-03-07T02:07:26;28.75;;;12.60;;
67869;SDS011;54673;52.262;6.830;2024-03-07T02:10:02;34.47;;;12.93;;
67869;SDS011;54673;52.262;6.830;2024-03-07T02:12:31;35.47;;;14.93;;
67869;SDS011;54673;52.262;6.830;2024-03-07T02:14:58;28.63;;;12.47;;
67869;SDS011;54673;52.262;6.830;2024-03-07T02:17:24;28.63;;;11.48;;
67869;SDS011;54673;52.262;6.830;2024-03-07T02:19:50;31.98;;;12.68;;
67869;SDS011;54673;52.262;6.830;2024-03-07T02:22:16;28.70;;;11.20;;
67869;SDS011;54673;52.262;6.830;2024-03-07T02:24:42;35.65;;;12.77;;
67869;SDS011;54673;52.262;6.830;2024-03-07T02:27:07;31.38;;;12.70;;
67869;SDS011;54673;52.262;6.830;2024-03-07T02:29:34;30.97;;;11.73;;
67869;SDS011;54673;52.262;6.830;2024-03-07T02:32:01;31.98;;;14.07;;
67869;SDS011;54673;52.262;6.830;2024-03-07T02:34:27;32.38;;;12.73;;
67869;SDS011;54673;52.262;6.830;2024-03-07T02:36:52;33.00;;;13.57;;
67869;SDS011;54673;52.262;6.830;2024-03-07T02:39:18;35.17;;;14.67;;
67869;SDS011;54673;52.262;6.830;2024-03-07T02:41:43;29.77;;;12.82;;
67869;SDS011;54673;52.262;6.830;2024-03-07T02:44:09;36.20;;;14.70;;
67869;SDS011;54673;52.262;6.830;2024-03-07T02:46:34;35.80;;;13.80;;
67869;SDS011;54673;52.262;6.830;2024-03-07T02:49:00;33.92;;;13.45;;
67869;SDS011;54673;52.262;6.830;2024-03-07T02:51:26;36.70;;;14.63;;
67869;SDS011;54673;52.262;6.830;2024-03-07T02:53:51;34.63;;;13.02;;
67869;SDS011;54673;52.262;6.830;2024-03-07T02:56:17;30.30;;;12.83;;
67869;SDS011;54673;52.262;6.830;2024-03-07T02:58:43;34.60;;;14.10;;
67869;SDS011;54673;52.262;6.830;2024-03-07T03:01:08;28.70;;;12.73;;
67869;SDS011;54673;52.262;6.830;2024-03-07T03:03:35;35.93;;;13.37;;
67869;SDS011;54673;52.262;6.830;2024-03-07T03:06:01;31.75;;;14.00;;
67869;SDS011;54673;52.262;6.830;2024-03-07T03:08:27;28.73;;;12.93;;
67869;SDS011;54673;52.262;6.830;2024-03-07T03:10:53;33.00;;;13.02;;
67869;SDS011;54673;52.262;6.830;2024-03-07T03:13:19;30.60;;;13.07;;
67869;SDS011;54673;52.262;6.830;2024-03-07T03:15:45;34.00;;;12.27;;
67869;SDS011;54673;52.262;6.830;2024-03-07T03:18:11;30.92;;;13.88;;
67869;SDS011;54673;52.262;6.830;2024-03-07T03:20:37;32.27;;;12.77;;
67869;SDS011;54673;52.262;6.830;2024-03-07T03:23:08;30.50;;;13.10;;
67869;SDS011;54673;52.262;6.830;2024-03-07T03:25:38;36.38;;;13.77;;
67869;SDS011;54673;52.262;6.830;2024-03-07T03:28:07;27.83;;;11.37;;
67869;SDS011;54673;52.262;6.830;2024-03-07T03:30:39;29.27;;;12.40;;
67869;SDS011;54673;52.262;6.830;2024-03-07T03:33:06;34.90;;;13.83;;
67869;SDS011;54673;52.262;6.830;2024-03-07T03:35:35;27.42;;;12.38;;
67869;SDS011;54673;52.262;6.830;2024-03-07T03:38:01;28.15;;;11.90;;
67869;SDS011;54673;52.262;6.830;2024-03-07T03:40:27;31.83;;;12.37;;
67869;SDS011;54673;52.262;6.830;2024-03-07T03:42:52;29.23;;;11.90;;
67869;SDS011;54673;52.262;6.830;2024-03-07T03:45:18;29.90;;;12.07;;
67869;SDS011;54673;52.262;6.830;2024-03-07T03:47:44;31.70;;;12.70;;
67869;SDS011;54673;52.262;6.830;2024-03-07T03:50:10;39.10;;;12.40;;
67869;SDS011;54673;52.262;6.830;2024-03-07T03:52:40;32.53;;;12.77;;
67869;SDS011;54673;52.262;6.830;2024-03-07T03:55:06;25.10;;;11.90;;
67869;SDS011;54673;52.262;6.830;2024-03-07T03:57:34;30.10;;;12.20;;
67869;SDS011;54673;52.262;6.830;2024-03-07T04:00:00;27.57;;;12.00;;
67869;SDS011;54673;52.262;6.830;2024-03-07T04:02:34;28.88;;;12.30;;
67869;SDS011;54673;52.262;6.830;2024-03-07T04:05:02;25.10;;;11.70;;
67869;SDS011;54673;52.262;6.830;2024-03-07T04:07:28;32.25;;;12.40;;
67869;SDS011;54673;52.262;6.830;2024-03-07T04:09:56;29.52;;;12.98;;
67869;SDS011;54673;52.262;6.830;2024-03-07T04:12:23;30.03;;;12.40;;
67869;SDS011;54673;52.262;6.830;2024-03-07T04:14:49;24.75;;;11.90;;
67869;SDS011;54673;52.262;6.830;2024-03-07T04:17:14;30.97;;;12.00;;
67869;SDS011;54673;52.262;6.830;2024-03-07T04:19:43;27.35;;;12.07;;
67869;SDS011;54673;52.262;6.830;2024-03-07T04:22:09;29.90;;;10.87;;
67869;SDS011;54673;52.262;6.830;2024-03-07T04:24:34;26.50;;;12.10;;
67869;SDS011;54673;52.262;6.830;2024-03-07T04:27:04;26.37;;;10.87;;
67869;SDS011;54673;52.262;6.830;2024-03-07T04:29:30;30.15;;;12.48;;
67869;SDS011;54673;52.262;6.830;2024-03-07T04:31:57;31.90;;;12.13;;
67869;SDS011;54673;52.262;6.830;2024-03-07T04:34:23;26.55;;;11.50;;
67869;SDS011;54673;52.262;6.830;2024-03-07T04:36:48;27.37;;;11.43;;
67869;SDS011;54673;52.262;6.830;2024-03-07T04:39:14;29.08;;;11.82;;
67869;SDS011;54673;52.262;6.830;2024-03-07T04:41:50;31.20;;;12.03;;
67869;SDS011;54673;52.262;6.830;2024-03-07T04:44:17;28.70;;;12.60;;
67869;SDS011;54673;52.262;6.830;2024-03-07T04:46:44;24.45;;;10.45;;
67869;SDS011;54673;52.262;6.830;2024-03-07T04:49:10;27.93;;;11.43;;
67869;SDS011;54673;52.262;6.830;2024-03-07T04:51:35;24.58;;;11.25;;
67869;SDS011;54673;52.262;6.830;2024-03-07T04:54:01;27.20;;;11.10;;
67869;SDS011;54673;52.262;6.830;2024-03-07T04:56:26;24.53;;;10.70;;
67869;SDS011;54673;52.262;6.830;2024-03-07T04:58:52;26.60;;;10.27;;
67869;SDS011;54673;52.262;6.830;2024-03-07T05:01:19;25.20;;;10.43;;
67869;SDS011;54673;52.262;6.830;2024-03-07T05:03:45;26.10;;;10.88;;
67869;SDS011;54673;52.262;6.830;2024-03-07T05:06:11;30.80;;;13.17;;
67869;SDS011;54673;52.262;6.830;2024-03-07T05:08:37;23.42;;;10.15;;
67869;SDS011;54673;52.262;6.830;2024-03-07T05:11:02;25.70;;;10.93;;
67869;SDS011;54673;52.262;6.830;2024-03-07T05:13:31;25.33;;;10.48;;
67869;SDS011;54673;52.262;6.830;2024-03-07T05:15:56;29.37;;;11.20;;
67869;SDS011;54673;52.262;6.830;2024-03-07T05:18:22;23.88;;;10.52;;
67869;SDS011;54673;52.262;6.830;2024-03-07T05:20:48;28.60;;;11.13;;
67869;SDS011;54673;52.262;6.830;2024-03-07T05:23:14;23.33;;;10.55;;
67869;SDS011;54673;52.262;6.830;2024-03-07T05:25:39;24.33;;;11.03;;
67869;SDS011;54673;52.262;6.830;2024-03-07T05:28:05;24.60;;;10.40;;
67869;SDS011;54673;52.262;6.830;2024-03-07T05:30:31;25.90;;;10.00;;
67869;SDS011;54673;52.262;6.830;2024-03-07T05:32:58;24.50;;;9.57;;
67869;SDS011;54673;52.262;6.830;2024-03-07T05:35:26;22.70;;;10.18;;
67869;SDS011;54673;52.262;6.830;2024-03-07T05:37:54;21.27;;;9.77;;
67869;SDS011;54673;52.262;6.830;2024-03-07T05:40:21;24.20;;;10.00;;
67869;SDS011;54673;52.262;6.830;2024-03-07T05:42:47;26.00;;;10.30;;
67869;SDS011;54673;52.262;6.830;2024-03-07T05:45:13;26.20;;;10.48;;
67869;SDS011;54673;52.262;6.830;2024-03-07T05:47:42;25.45;;;10.07;;
67869;SDS011;54673;52.262;6.830;2024-03-07T05:50:08;25.92;;;10.85;;
67869;SDS011;54673;52.262;6.830;2024-03-07T05:52:34;24.00;;;9.97;;
67869;SDS011;54673;52.262;6.830;2024-03-07T05:55:00;22.48;;;9.40;;
67869;SDS011;54673;52.262;6.830;2024-03-07T05:57:25;23.87;;;10.27;;
67869;SDS011;54673;52.262;6.830;2024-03-07T05:59:51;26.17;;;9.95;;
67869;SDS011;54673;52.262;6.830;2024-03-07T06:02:16;20.83;;;9.77;;
67869;SDS011;54673;52.262;6.830;2024-03-07T06:04:44;21.67;;;9.88;;
67869;SDS011;54673;52.262;6.830;2024-03-07T06:07:10;21.80;;;9.77;;
67869;SDS011;54673;52.262;6.830;2024-03-07T06:09:36;26.80;;;11.13;;
67869;SDS011;54673;52.262;6.830;2024-03-07T06:12:01;24.00;;;10.03;;
67869;SDS011;54673;52.262;6.830;2024-03-07T06:14:29;25.30;;;10.70;;
67869;SDS011;54673;52.262;6.830;2024-03-07T06:16:55;25.33;;;10.55;;
67869;SDS011;54673;52.262;6.830;2024-03-07T06:19:23;20.70;;;8.82;;
67869;SDS011;54673;52.262;6.830;2024-03-07T06:21:48;22.60;;;10.17;;
67869;SDS011;54673;52.262;6.830;2024-03-07T06:24:14;22.48;;;9.90;;
67869;SDS011;54673;52.262;6.830;2024-03-07T06:26:42;22.65;;;9.90;;
67869;SDS011;54673;52.262;6.830;2024-03-07T06:29:14;19.10;;;8.90;;
67869;SDS011;54673;52.262;6.830;2024-03-07T06:31:41;19.88;;;9.15;;
67869;SDS011;54673;52.262;6.830;2024-03-07T06:34:07;24.30;;;10.53;;
67869;SDS011;54673;52.262;6.830;2024-03-07T06:36:35;21.88;;;9.07;;
67869;SDS011;54673;52.262;6.830;2024-03-07T06:39:01;20.25;;;7.85;;
67869;SDS011;54673;52.262;6.830;2024-03-07T06:41:30;25.17;;;9.80;;
67869;SDS011;54673;52.262;6.830;2024-03-07T06:43:56;23.90;;;10.20;;
67869;SDS011;54673;52.262;6.830;2024-03-07T06:46:22;18.87;;;9.17;;
67869;SDS011;54673;52.262;6.830;2024-03-07T06:48:49;21.10;;;9.02;;
67869;SDS011;54673;52.262;6.830;2024-03-07T06:51:14;21.07;;;9.10;;
67869;SDS011;54673;52.262;6.830;2024-03-07T06:53:42;19.25;;;8.85;;
67869;SDS011;54673;52.262;6.830;2024-03-07T06:56:08;19.70;;;9.10;;
67869;SDS011;54673;52.262;6.830;2024-03-07T06:58:34;19.92;;;8.50;;
67869;SDS011;54673;52.262;6.830;2024-03-07T07:00:59;21.43;;;9.30;;
67869;SDS011;54673;52.262;6.830;2024-03-07T07:03:26;24.83;;;8.40;;
67869;SDS011;54673;52.262;6.830;2024-03-07T07:05:53;19.70;;;8.77;;
67869;SDS011;54673;52.262;6.830;2024-03-07T07:08:19;16.20;;;7.07;;
67869;SDS011;54673;52.262;6.830;2024-03-07T07:10:46;18.33;;;8.30;;
67869;SDS011;54673;52.262;6.830;2024-03-07T07:13:12;22.58;;;9.10;;
67869;SDS011;54673;52.262;6.830;2024-03-07T07:15:38;5.17;;;2.73;;
67869;SDS011;54673;52.262;6.830;2024-03-07T07:18:04;18.30;;;8.38;;
67869;SDS011;54673;52.262;6.830;2024-03-07T07:20:32;12.13;;;6.35;;
67869;SDS011;54673;52.262;6.830;2024-03-07T07:23:00;21.27;;;8.57;;
67869;SDS011;54673;52.262;6.830;2024-03-07T07:25:28;19.88;;;8.30;;
67869;SDS011;54673;52.262;6.830;2024-03-07T07:27:54;5.93;;;3.27;;
67869;SDS011;54673;52.262;6.830;2024-03-07T07:30:20;20.52;;;8.35;;
67869;SDS011;54673;52.262;6.830;2024-03-07T07:32:52;19.80;;;7.20;;
67869;SDS011;54673;52.262;6.830;2024-03-07T07:35:21;17.75;;;7.72;;
67869;SDS011;54673;52.262;6.830;2024-03-07T07:37:48;12.95;;;6.32;;
67869;SDS011;54673;52.262;6.830;2024-03-07T07:40:15;9.75;;;5.32;;
67869;SDS011;54673;52.262;6.830;2024-03-07T07:42:48;11.90;;;5.78;;
67869;SDS011;54673;52.262;6.830;2024-03-07T07:45:16;12.50;;;5.93;;
67869;SDS011;54673;52.262;6.830;2024-03-07T07:47:43;5.70;;;3.65;;
67869;SDS011;54673;52.262;6.830;2024-03-07T07:50:14;14.43;;;6.40;;
67869;SDS011;54673;52.262;6.830;2024-03-07T07:52:44;15.35;;;7.07;;
67869;SDS011;54673;52.262;6.830;2024-03-07T07:55:15;7.90;;;4.95;;
67869;SDS011;54673;52.262;6.830;2024-03-07T07:57:48;17.43;;;7.70;;
67869;SDS011;54673;52.262;6.830;2024-03-07T08:00:18;10.23;;;5.13;;
67869;SDS011;54673;52.262;6.830;2024-03-07T08:02:57;15.10;;;6.05;;
67869;SDS011;54673;52.262;6.830;2024-03-07T08:05:25;15.15;;;6.80;;
67869;SDS011;54673;52.262;6.830;2024-03-07T08:07:53;16.90;;;7.43;;
67869;SDS011;54673;52.262;6.830;2024-03-07T08:10:26;7.07;;;4.57;;
67869;SDS011;54673;52.262;6.830;2024-03-07T08:12:59;20.02;;;7.65;;
67869;SDS011;54673;52.262;6.830;2024-03-07T08:15:28;15.75;;;7.07;;
67869;SDS011;54673;52.262;6.830;2024-03-07T08:17:55;18.42;;;9.07;;
67869;SDS011;54673;52.262;6.830;2024-03-07T08:20:22;26.35;;;10.77;;
67869;SDS011;54673;52.262;6.830;2024-03-07T08:22:52;14.37;;;6.83;;
67869;SDS011;54673;52.262;6.830;2024-03-07T08:25:23;12.30;;;5.40;;
67869;SDS011;54673;52.262;6.830;2024-03-07T08:27:50;6.55;;;3.72;;
67869;SDS011;54673;52.262;6.830;2024-03-07T08:30:17;15.30;;;7.70;;
67869;SDS011;54673;52.262;6.830;2024-03-07T08:32:44;12.55;;;6.35;;
67869;SDS011;54673;52.262;6.830;2024-03-07T08:35:12;4.73;;;2.40;;
67869;SDS011;54673;52.262;6.830;2024-03-07T08:37:38;17.33;;;7.45;;
67869;SDS011;54673;52.262;6.830;2024-03-07T08:40:05;10.20;;;4.82;;
67869;SDS011;54673;52.262;6.830;2024-03-07T08:42:32;13.05;;;5.43;;
67869;SDS011;54673;52.262;6.830;2024-03-07T08:44:59;11.95;;;5.43;;
67869;SDS011;54673;52.262;6.830;2024-03-07T08:47:26;12.17;;;7.03;;
67869;SDS011;54673;52.262;6.830;2024-03-07T08:49:53;13.48;;;6.22;;
67869;SDS011;54673;52.262;6.830;2024-03-07T08:52:19;12.48;;;5.35;;
67869;SDS011;54673;52.262;6.830;2024-03-07T08:54:44;8.73;;;5.30;;
67869;SDS011;54673;52.262;6.830;2024-03-07T08:57:10;13.00;;;5.97;;
67869;SDS011;54673;52.262;6.830;2024-03-07T08:59:36;11.75;;;6.15;;
67869;SDS011;54673;52.262;6.830;2024-03-07T09:02:01;9.95;;;5.05;;
67869;SDS011;54673;52.262;6.830;2024-03-07T09:04:27;11.13;;;5.53;;
67869;SDS011;54673;52.262;6.830;2024-03-07T09:06:56;11.85;;;5.32;;
67869;SDS011;54673;52.262;6.830;2024-03-07T09:09:21;7.03;;;4.50;;
67869;SDS011;54673;52.262;6.830;2024-03-07T09:11:47;19.42;;;7.90;;
67869;SDS011;54673;52.262;6.830;2024-03-07T09:14:12;13.83;;;6.23;;
67869;SDS011;54673;52.262;6.830;2024-03-07T09:16:38;7.70;;;4.47;;
67869;SDS011;54673;52.262;6.830;2024-03-07T09:19:04;6.78;;;4.53;;
67869;SDS011;54673;52.262;6.830;2024-03-07T09:21:30;18.47;;;8.53;;
67869;SDS011;54673;52.262;6.830;2024-03-07T09:23:55;21.02;;;8.02;;
67869;SDS011;54673;52.262;6.830;2024-03-07T09:26:21;12.20;;;6.33;;
67869;SDS011;54673;52.262;6.830;2024-03-07T09:28:47;14.07;;;6.83;;
67869;SDS011;54673;52.262;6.830;2024-03-07T09:31:15;6.03;;;3.15;;
67869;SDS011;54673;52.262;6.830;2024-03-07T09:33:41;16.47;;;6.50;;
67869;SDS011;54673;52.262;6.830;2024-03-07T09:36:06;10.65;;;5.65;;
67869;SDS011;54673;52.262;6.830;2024-03-07T09:38:33;14.70;;;4.63;;
67869;SDS011;54673;52.262;6.830;2024-03-07T09:40:59;9.90;;;5.60;;
67869;SDS011;54673;52.262;6.830;2024-03-07T09:43:25;18.40;;;8.70;;
67869;SDS011;54673;52.262;6.830;2024-03-07T09:45:53;15.25;;;6.88;;
67869;SDS011;54673;52.262;6.830;2024-03-07T09:48:19;12.93;;;6.13;;
67869;SDS011;54673;52.262;6.830;2024-03-07T09:50:46;18.90;;;7.47;;
67869;SDS011;54673;52.262;6.830;2024-03-07T09:53:17;20.47;;;8.07;;
67869;SDS011;54673;52.262;6.830;2024-03-07T09:55:45;19.60;;;8.30;;
67869;SDS011;54673;52.262;6.830;2024-03-07T09:58:10;19.02;;;8.15;;
67869;SDS011;54673;52.262;6.830;2024-03-07T10:00:38;18.13;;;8.87;;
67869;SDS011;54673;52.262;6.830;2024-03-07T10:03:05;10.80;;;5.13;;
67869;SDS011;54673;52.262;6.830;2024-03-07T10:05:33;16.77;;;7.70;;
67869;SDS011;54673;52.262;6.830;2024-03-07T10:07:59;20.10;;;8.55;;
67869;SDS011;54673;52.262;6.830;2024-03-07T10:10:25;17.55;;;7.90;;
67869;SDS011;54673;52.262;6.830;2024-03-07T10:12:51;25.67;;;10.93;;
67869;SDS011;54673;52.262;6.830;2024-03-07T10:15:22;12.63;;;5.68;;
67869;SDS011;54673;52.262;6.830;2024-03-07T10:17:56;14.47;;;6.97;;
67869;SDS011;54673;52.262;6.830;2024-03-07T10:20:21;7.82;;;4.63;;
67869;SDS011;54673;52.262;6.830;2024-03-07T10:22:47;12.27;;;6.20;;
67869;SDS011;54673;52.262;6.830;2024-03-07T10:25:20;12.30;;;6.65;;
67869;SDS011;54673;52.262;6.830;2024-03-07T10:27:52;12.73;;;6.43;;
67869;SDS011;54673;52.262;6.830;2024-03-07T10:30:19;14.20;;;5.82;;
67869;SDS011;54673;52.262;6.830;2024-03-07T10:32:51;23.40;;;10.60;;
67869;SDS011;54673;52.262;6.830;2024-03-07T10:35:22;24.15;;;10.70;;
67869;SDS011;54673;52.262;6.830;2024-03-07T10:37:54;24.20;;;9.23;;
67869;SDS011;54673;52.262;6.830;2024-03-07T10:40:21;7.03;;;4.50;;
67869;SDS011;54673;52.262;6.830;2024-03-07T10:42:48;11.38;;;5.88;;
67869;SDS011;54673;52.262;6.830;2024-03-07T10:45:20;12.23;;;4.77;;
67869;SDS011;54673;52.262;6.830;2024-03-07T10:47:53;7.35;;;3.75;;
67869;SDS011;54673;52.262;6.830;2024-03-07T10:56:15;10.68;;;5.00;;
67869;SDS011;54673;52.262;6.830;2024-03-07T11:01:39;10.77;;;5.15;;
67869;SDS011;54673;52.262;6.830;2024-03-07T11:04:15;12.10;;;5.38;;
67869;SDS011;54673;52.262;6.830;2024-03-07T11:06:43;13.83;;;7.17;;
67869;SDS011;54673;52.262;6.830;2024-03-07T11:09:09;12.18;;;6.03;;
67869;SDS011;54673;52.262;6.830;2024-03-07T11:11:39;12.40;;;5.20;;
67869;SDS011;54673;52.262;6.830;2024-03-07T11:14:09;10.85;;;5.10;;
67869;SDS011;54673;52.262;6.830;2024-03-07T11:16:37;23.80;;;10.50;;
67869;SDS011;54673;52.262;6.830;2024-03-07T11:19:24;13.93;;;7.33;;
67869;SDS011;54673;52.262;6.830;2024-03-07T11:21:54;17.88;;;8.05;;
67869;SDS011;54673;52.262;6.830;2024-03-07T11:24:24;9.77;;;5.70;;
67869;SDS011;54673;52.262;6.830;2024-03-07T11:26:55;14.32;;;6.22;;
67869;SDS011;54673;52.262;6.830;2024-03-07T11:32:17;8.03;;;3.27;;
67869;SDS011;54673;52.262;6.830;2024-03-07T11:34:45;18.80;;;7.90;;
67869;SDS011;54673;52.262;6.830;2024-03-07T11:37:18;9.10;;;5.17;;
67869;SDS011;54673;52.262;6.830;2024-03-07T11:40:09;12.65;;;6.30;;
67869;SDS011;54673;52.262;6.830;2024-03-07T11:42:43;13.70;;;7.13;;
67869;SDS011;54673;52.262;6.830;2024-03-07T11:45:11;20.37;;;9.17;;
67869;SDS011;54673;52.262;6.830;2024-03-07T11:47:50;13.90;;;7.85;;
67869;SDS011;54673;52.262;6.830;2024-03-07T11:50:41;21.07;;;8.80;;
67869;SDS011;54673;52.262;6.830;2024-03-07T11:53:08;18.33;;;8.52;;
67869;SDS011;54673;52.262;6.830;2024-03-07T11:55:34;17.80;;;7.88;;
67869;SDS011;54673;52.262;6.830;2024-03-07T11:58:15;9.90;;;4.70;;
67869;SDS011;54673;52.262;6.830;2024-03-07T12:00:49;9.15;;;4.78;;
67869;SDS011;54673;52.262;6.830;2024-03-07T12:03:16;22.30;;;7.37;;
67869;SDS011;54673;52.262;6.830;2024-03-07T12:05:46;14.10;;;5.65;;
67869;SDS011;54673;52.262;6.830;2024-03-07T12:08:12;10.45;;;5.22;;
67869;SDS011;54673;52.262;6.830;2024-03-07T12:10:39;21.03;;;10.60;;
67869;SDS011;54673;52.262;6.830;2024-03-07T12:13:09;14.27;;;6.22;;
67869;SDS011;54673;52.262;6.830;2024-03-07T12:15:44;27.47;;;11.23;;
67869;SDS011;54673;52.262;6.830;2024-03-07T12:18:10;19.33;;;8.38;;
67869;SDS011;54673;52.262;6.830;2024-03-07T12:20:39;18.77;;;8.40;;
67869;SDS011;54673;52.262;6.830;2024-03-07T12:23:06;9.97;;;4.87;;
67869;SDS011;54673;52.262;6.830;2024-03-07T12:25:34;25.38;;;11.25;;
67869;SDS011;54673;52.262;6.830;2024-03-07T12:28:07;11.97;;;3.93;;
67869;SDS011;54673;52.262;6.830;2024-03-07T12:30:51;21.10;;;9.80;;
67869;SDS011;54673;52.262;6.830;2024-03-07T12:33:19;11.35;;;5.35;;
67869;SDS011;54673;52.262;6.830;2024-03-07T12:35:50;14.37;;;6.13;;
67869;SDS011;54673;52.262;6.830;2024-03-07T12:38:17;8.43;;;4.35;;
67869;SDS011;54673;52.262;6.830;2024-03-07T12:40:44;13.37;;;6.00;;
67869;SDS011;54673;52.262;6.830;2024-03-07T12:45:49;17.33;;;6.55;;
67869;SDS011;54673;52.262;6.830;2024-03-07T12:48:19;27.67;;;11.17;;
67869;SDS011;54673;52.262;6.830;2024-03-07T12:50:46;17.70;;;7.50;;
67869;SDS011;54673;52.262;6.830;2024-03-07T12:53:15;21.23;;;9.03;;
67869;SDS011;54673;52.262;6.830;2024-03-07T12:55:43;14.35;;;6.88;;
67869;SDS011;54673;52.262;6.830;2024-03-07T12:58:09;19.23;;;9.18;;
67869;SDS011;54673;52.262;6.830;2024-03-07T13:00:38;14.67;;;6.47;;
67869;SDS011;54673;52.262;6.830;2024-03-07T13:03:06;16.77;;;8.68;;
67869;SDS011;54673;52.262;6.830;2024-03-07T13:05:32;19.93;;;7.67;;
67869;SDS011;54673;52.262;6.830;2024-03-07T13:07:58;20.77;;;7.95;;
67869;SDS011;54673;52.262;6.830;2024-03-07T13:10:23;18.80;;;8.30;;
67869;SDS011;54673;52.262;6.830;2024-03-07T13:12:49;14.20;;;6.40;;
67869;SDS011;54673;52.262;6.830;2024-03-07T13:15:16;14.73;;;6.85;;
67869;SDS011;54673;52.262;6.830;2024-03-07T13:17:43;21.48;;;8.27;;
67869;SDS011;54673;52.262;6.830;2024-03-07T13:20:11;11.50;;;5.50;;
67869;SDS011;54673;52.262;6.830;2024-03-07T13:22:39;15.40;;;7.30;;
67869;SDS011;54673;52.262;6.830;2024-03-07T13:25:07;14.23;;;6.23;;
67869;SDS011;54673;52.262;6.830;2024-03-07T13:27:49;13.00;;;6.28;;
67869;SDS011;54673;52.262;6.830;2024-03-07T13:30:20;19.57;;;9.47;;
67869;SDS011;54673;52.262;6.830;2024-03-07T13:32:52;13.07;;;6.15;;
67869;SDS011;54673;52.262;6.830;2024-03-07T13:35:22;14.70;;;5.95;;
67869;SDS011;54673;52.262;6.830;2024-03-07T13:37:49;19.47;;;8.27;;
67869;SDS011;54673;52.262;6.830;2024-03-07T13:40:16;21.23;;;9.13;;
67869;SDS011;54673;52.262;6.830;2024-03-07T13:42:48;13.10;;;7.13;;
67869;SDS011;54673;52.262;6.830;2024-03-07T13:45:18;18.33;;;8.20;;
67869;SDS011;54673;52.262;6.830;2024-03-07T13:47:49;14.90;;;5.85;;
67869;SDS011;54673;52.262;6.830;2024-03-07T13:50:15;22.70;;;9.20;;
67869;SDS011;54673;52.262;6.830;2024-03-07T13:52:44;10.18;;;5.10;;
67869;SDS011;54673;52.262;6.830;2024-03-07T13:55:29;22.70;;;10.00;;
67869;SDS011;54673;52.262;6.830;2024-03-07T13:57:58;13.20;;;5.50;;
67869;SDS011;54673;52.262;6.830;2024-03-07T14:06:04;9.10;;;5.43;;
67869;SDS011;54673;52.262;6.830;2024-03-07T14:17:36;19.80;;;9.43;;
67869;SDS011;54673;52.262;6.830;2024-03-07T14:26:17;15.15;;;6.35;;
67869;SDS011;54673;52.262;6.830;2024-03-07T14:32:13;14.07;;;7.10;;
67869;SDS011;54673;52.262;6.830;2024-03-07T14:34:47;17.42;;;7.00;;
67869;SDS011;54673;52.262;6.830;2024-03-07T14:37:34;16.70;;;7.13;;
67869;SDS011;54673;52.262;6.830;2024-03-07T14:40:08;19.75;;;8.55;;
67869;SDS011;54673;52.262;6.830;2024-03-07T14:42:42;10.93;;;5.60;;
67869;SDS011;54673;52.262;6.830;2024-03-07T14:45:11;20.03;;;8.07;;
67869;SDS011;54673;52.262;6.830;2024-03-07T14:47:44;18.20;;;6.88;;
67869;SDS011;54673;52.262;6.830;2024-03-07T14:50:12;19.70;;;8.83;;
67869;SDS011;54673;52.262;6.830;2024-03-07T14:52:41;12.65;;;5.80;;
67869;SDS011;54673;52.262;6.830;2024-03-07T14:55:10;9.73;;;3.95;;
67869;SDS011;54673;52.262;6.830;2024-03-07T14:57:38;22.53;;;8.20;;
67869;SDS011;54673;52.262;6.830;2024-03-07T15:00:04;22.27;;;8.57;;
67869;SDS011;54673;52.262;6.830;2024-03-07T15:02:42;18.90;;;8.60;;
67869;SDS011;54673;52.262;6.830;2024-03-07T15:05:10;7.57;;;4.10;;
67869;SDS011;54673;52.262;6.830;2024-03-07T15:07:36;13.37;;;6.50;;
67869;SDS011;54673;52.262;6.830;2024-03-07T15:10:02;15.53;;;6.80;;
67869;SDS011;54673;52.262;6.830;2024-03-07T15:12:31;17.90;;;7.60;;